sensor_id;sensor_type;location;lat;lon;timestamp;P1;durP1;ratioP1;P2;durP2;ratioP2
74074;SDS011;62428;51.412;5.432;2023-04-15T00:01:08;10.23;;;2.17;;
74074;SDS011;62428;51.412;5.432;2023-04-15T00:03:34;7.72;;;2.17;;
74074;SDS011;62428;51.412;5.432;2023-04-15T00:06:00;6.83;;;2.30;;
74074;SDS011;62428;51.412;5.432;2023-04-15T00:08:25;4.70;;;1.75;;
74074;SDS011;62428;51.412;5.432;2023-04-15T00:10:51;5.77;;;1.63;;
74074;SDS011;62428;51.412;5.432;2023-04-15T00:13:17;6.45;;;1.80;;
74074;SDS011;62428;51.412;5.432;2023-04-15T00:15:42;5.90;;;2.27;;
74074;SDS011;62428;51.412;5.432;2023-04-15T00:18:07;9.07;;;2.13;;
74074;SDS011;62428;51.412;5.432;2023-04-15T00:20:33;9.33;;;2.23;;
74074;SDS011;62428;51.412;5.432;2023-04-15T00:22:59;6.43;;;2.40;;
74074;SDS011;62428;51.412;5.432;2023-04-15T00:25:26;8.02;;;2.70;;
74074;SDS011;62428;51.412;5.432;2023-04-15T00:27:52;8.07;;;2.67;;
74074;SDS011;62428;51.412;5.432;2023-04-15T00:30:17;8.77;;;1.97;;
74074;SDS011;62428;51.412;5.432;2023-04-15T00:32:43;5.18;;;2.08;;
74074;SDS011;62428;51.412;5.432;2023-04-15T00:35:08;5.33;;;2.20;;
74074;SDS011;62428;51.412;5.432;2023-04-15T00:37:34;6.07;;;2.10;;
74074;SDS011;62428;51.412;5.432;2023-04-15T00:40:00;9.18;;;2.60;;
74074;SDS011;62428;51.412;5.432;2023-04-15T00:42:29;6.40;;;2.40;;
74074;SDS011;62428;51.412;5.432;2023-04-15T00:44:55;6.00;;;2.33;;
74074;SDS011;62428;51.412;5.432;2023-04-15T00:47:21;5.43;;;2.03;;
74074;SDS011;62428;51.412;5.432;2023-04-15T00:49:46;7.27;;;2.13;;
74074;SDS011;62428;51.412;5.432;2023-04-15T00:52:12;6.43;;;1.90;;
74074;SDS011;62428;51.412;5.432;2023-04-15T00:54:37;6.97;;;2.30;;
74074;SDS011;62428;51.412;5.432;2023-04-15T00:57:04;3.77;;;2.30;;
74074;SDS011;62428;51.412;5.432;2023-04-15T00:59:30;7.43;;;2.47;;
74074;SDS011;62428;51.412;5.432;2023-04-15T01:01:57;7.35;;;2.60;;
74074;SDS011;62428;51.412;5.432;2023-04-15T01:04:23;5.10;;;2.30;;
74074;SDS011;62428;51.412;5.432;2023-04-15T01:06:49;6.37;;;2.40;;
74074;SDS011;62428;51.412;5.432;2023-04-15T01:09:15;8.95;;;2.70;;
74074;SDS011;62428;51.412;5.432;2023-04-15T01:11:41;6.35;;;2.60;;
74074;SDS011;62428;51.412;5.432;2023-04-15T01:14:06;9.13;;;2.53;;
74074;SDS011;62428;51.412;5.432;2023-04-15T01:16:33;7.15;;;2.45;;
74074;SDS011;62428;51.412;5.432;2023-04-15T01:18:58;5.63;;;2.47;;
74074;SDS011;62428;51.412;5.432;2023-04-15T01:21:24;11.20;;;2.90;;
74074;SDS011;62428;51.412;5.432;2023-04-15T01:23:50;7.50;;;2.85;;
74074;SDS011;62428;51.412;5.432;2023-04-15T01:26:19;8.90;;;2.53;;
74074;SDS011;62428;51.412;5.432;2023-04-15T01:28:46;9.93;;;2.92;;
74074;SDS011;62428;51.412;5.432;2023-04-15T01:31:11;7.20;;;2.70;;
74074;SDS011;62428;51.412;5.432;2023-04-15T01:33:41;8.57;;;2.53;;
74074;SDS011;62428;51.412;5.432;2023-04-15T01:36:08;8.13;;;2.93;;
74074;SDS011;62428;51.412;5.432;2023-04-15T01:38:35;8.30;;;3.05;;
74074;SDS011;62428;51.412;5.432;2023-04-15T01:41:01;9.30;;;3.35;;
74074;SDS011;62428;51.412;5.432;2023-04-15T01:43:28;8.52;;;3.83;;
74074;SDS011;62428;51.412;5.432;2023-04-15T01:45:53;11.93;;;4.10;;
74074;SDS011;62428;51.412;5.432;2023-04-15T01:48:19;11.77;;;3.90;;
74074;SDS011;62428;51.412;5.432;2023-04-15T01:50:44;13.97;;;4.00;;
74074;SDS011;62428;51.412;5.432;2023-04-15T01:53:10;13.30;;;4.47;;
74074;SDS011;62428;51.412;5.432;2023-04-15T01:55:35;9.55;;;3.97;;
74074;SDS011;62428;51.412;5.432;2023-04-15T01:58:01;8.00;;;4.07;;
74074;SDS011;62428;51.412;5.432;2023-04-15T02:00:27;10.77;;;4.18;;
74074;SDS011;62428;51.412;5.432;2023-04-15T02:02:52;8.67;;;3.87;;
74074;SDS011;62428;51.412;5.432;2023-04-15T02:05:18;7.70;;;3.70;;
74074;SDS011;62428;51.412;5.432;2023-04-15T02:07:44;8.03;;;4.27;;
74074;SDS011;62428;51.412;5.432;2023-04-15T02:10:09;13.90;;;4.25;;
74074;SDS011;62428;51.412;5.432;2023-04-15T02:12:37;10.85;;;4.68;;
74074;SDS011;62428;51.412;5.432;2023-04-15T02:15:02;13.90;;;4.50;;
74074;SDS011;62428;51.412;5.432;2023-04-15T02:17:28;15.83;;;4.40;;
74074;SDS011;62428;51.412;5.432;2023-04-15T02:19:54;9.20;;;4.63;;
74074;SDS011;62428;51.412;5.432;2023-04-15T02:22:20;12.30;;;4.38;;
74074;SDS011;62428;51.412;5.432;2023-04-15T02:24:45;9.80;;;4.60;;
74074;SDS011;62428;51.412;5.432;2023-04-15T02:27:14;11.27;;;4.88;;
74074;SDS011;62428;51.412;5.432;2023-04-15T02:29:40;9.20;;;4.43;;
74074;SDS011;62428;51.412;5.432;2023-04-15T02:32:05;13.57;;;4.60;;
74074;SDS011;62428;51.412;5.432;2023-04-15T02:34:31;11.88;;;4.70;;
74074;SDS011;62428;51.412;5.432;2023-04-15T02:36:57;10.23;;;4.50;;
74074;SDS011;62428;51.412;5.432;2023-04-15T02:39:23;12.13;;;4.45;;
74074;SDS011;62428;51.412;5.432;2023-04-15T02:41:48;19.07;;;5.20;;
74074;SDS011;62428;51.412;5.432;2023-04-15T02:44:16;11.68;;;5.40;;
74074;SDS011;62428;51.412;5.432;2023-04-15T02:46:44;10.98;;;4.70;;
74074;SDS011;62428;51.412;5.432;2023-04-15T02:49:14;11.50;;;4.55;;
74074;SDS011;62428;51.412;5.432;2023-04-15T02:51:40;14.52;;;5.60;;
74074;SDS011;62428;51.412;5.432;2023-04-15T02:54:05;12.97;;;5.37;;
74074;SDS011;62428;51.412;5.432;2023-04-15T02:56:31;13.50;;;4.93;;
74074;SDS011;62428;51.412;5.432;2023-04-15T02:58:57;13.40;;;5.37;;
74074;SDS011;62428;51.412;5.432;2023-04-15T03:01:22;12.93;;;5.10;;
74074;SDS011;62428;51.412;5.432;2023-04-15T03:03:48;10.17;;;4.83;;
74074;SDS011;62428;51.412;5.432;2023-04-15T03:06:13;17.73;;;5.20;;
74074;SDS011;62428;51.412;5.432;2023-04-15T03:08:38;10.55;;;5.05;;
74074;SDS011;62428;51.412;5.432;2023-04-15T03:11:04;13.23;;;5.43;;
74074;SDS011;62428;51.412;5.432;2023-04-15T03:13:29;11.00;;;5.37;;
74074;SDS011;62428;51.412;5.432;2023-04-15T03:15:54;10.97;;;4.90;;
74074;SDS011;62428;51.412;5.432;2023-04-15T03:18:20;8.17;;;5.07;;
74074;SDS011;62428;51.412;5.432;2023-04-15T03:20:45;13.10;;;5.30;;
74074;SDS011;62428;51.412;5.432;2023-04-15T03:23:10;10.60;;;5.00;;
74074;SDS011;62428;51.412;5.432;2023-04-15T03:25:36;16.17;;;4.95;;
74074;SDS011;62428;51.412;5.432;2023-04-15T03:28:01;13.80;;;5.60;;
74074;SDS011;62428;51.412;5.432;2023-04-15T03:30:27;10.13;;;5.28;;
74074;SDS011;62428;51.412;5.432;2023-04-15T03:32:53;11.37;;;5.13;;
74074;SDS011;62428;51.412;5.432;2023-04-15T03:35:18;7.43;;;4.93;;
74074;SDS011;62428;51.412;5.432;2023-04-15T03:37:43;9.70;;;5.20;;
74074;SDS011;62428;51.412;5.432;2023-04-15T03:40:09;9.90;;;5.43;;
74074;SDS011;62428;51.412;5.432;2023-04-15T03:42:35;9.00;;;5.28;;
74074;SDS011;62428;51.412;5.432;2023-04-15T03:45:00;10.80;;;5.60;;
74074;SDS011;62428;51.412;5.432;2023-04-15T03:47:25;11.00;;;5.20;;
74074;SDS011;62428;51.412;5.432;2023-04-15T03:49:50;11.80;;;5.40;;
74074;SDS011;62428;51.412;5.432;2023-04-15T03:52:16;10.87;;;5.27;;
74074;SDS011;62428;51.412;5.432;2023-04-15T03:54:41;9.47;;;4.87;;
74074;SDS011;62428;51.412;5.432;2023-04-15T03:57:06;12.70;;;6.00;;
74074;SDS011;62428;51.412;5.432;2023-04-15T03:59:32;10.18;;;5.28;;
74074;SDS011;62428;51.412;5.432;2023-04-15T04:01:57;11.88;;;5.25;;
74074;SDS011;62428;51.412;5.432;2023-04-15T04:04:22;11.97;;;5.13;;
74074;SDS011;62428;51.412;5.432;2023-04-15T04:06:48;9.77;;;5.07;;
74074;SDS011;62428;51.412;5.432;2023-04-15T04:09:13;9.90;;;5.20;;
74074;SDS011;62428;51.412;5.432;2023-04-15T04:11:38;10.50;;;5.60;;
74074;SDS011;62428;51.412;5.432;2023-04-15T04:14:04;9.07;;;5.00;;
74074;SDS011;62428;51.412;5.432;2023-04-15T04:16:29;11.37;;;5.30;;
74074;SDS011;62428;51.412;5.432;2023-04-15T04:18:55;10.05;;;4.68;;
74074;SDS011;62428;51.412;5.432;2023-04-15T04:21:20;13.43;;;4.60;;
74074;SDS011;62428;51.412;5.432;2023-04-15T04:23:46;10.73;;;5.10;;
74074;SDS011;62428;51.412;5.432;2023-04-15T04:26:11;12.13;;;5.13;;
74074;SDS011;62428;51.412;5.432;2023-04-15T04:28:36;12.10;;;5.20;;
74074;SDS011;62428;51.412;5.432;2023-04-15T04:31:04;9.65;;;5.22;;
74074;SDS011;62428;51.412;5.432;2023-04-15T04:33:30;10.18;;;5.13;;
74074;SDS011;62428;51.412;5.432;2023-04-15T04:35:56;13.87;;;5.03;;
74074;SDS011;62428;51.412;5.432;2023-04-15T04:38:21;11.37;;;5.10;;
74074;SDS011;62428;51.412;5.432;2023-04-15T04:40:47;9.73;;;4.87;;
74074;SDS011;62428;51.412;5.432;2023-04-15T04:43:12;7.57;;;4.43;;
74074;SDS011;62428;51.412;5.432;2023-04-15T04:45:38;12.30;;;5.20;;
74074;SDS011;62428;51.412;5.432;2023-04-15T04:48:04;11.60;;;5.13;;
74074;SDS011;62428;51.412;5.432;2023-04-15T04:50:31;12.97;;;4.50;;
74074;SDS011;62428;51.412;5.432;2023-04-15T04:52:56;12.55;;;5.13;;
74074;SDS011;62428;51.412;5.432;2023-04-15T04:55:21;11.73;;;5.10;;
74074;SDS011;62428;51.412;5.432;2023-04-15T04:57:47;9.47;;;4.63;;
74074;SDS011;62428;51.412;5.432;2023-04-15T05:00:12;9.77;;;4.63;;
74074;SDS011;62428;51.412;5.432;2023-04-15T05:02:38;12.45;;;5.20;;
74074;SDS011;62428;51.412;5.432;2023-04-15T05:05:03;17.13;;;5.53;;
74074;SDS011;62428;51.412;5.432;2023-04-15T05:07:29;8.73;;;5.17;;
74074;SDS011;62428;51.412;5.432;2023-04-15T05:09:54;9.53;;;5.27;;
74074;SDS011;62428;51.412;5.432;2023-04-15T05:12:20;10.43;;;4.90;;
74074;SDS011;62428;51.412;5.432;2023-04-15T05:14:45;9.68;;;4.82;;
74074;SDS011;62428;51.412;5.432;2023-04-15T05:17:10;10.40;;;5.00;;
74074;SDS011;62428;51.412;5.432;2023-04-15T05:19:36;13.33;;;5.20;;
74074;SDS011;62428;51.412;5.432;2023-04-15T05:22:01;8.40;;;4.73;;
74074;SDS011;62428;51.412;5.432;2023-04-15T05:24:27;8.98;;;4.55;;
74074;SDS011;62428;51.412;5.432;2023-04-15T05:26:53;9.93;;;4.63;;
74074;SDS011;62428;51.412;5.432;2023-04-15T05:29:18;10.80;;;5.07;;
74074;SDS011;62428;51.412;5.432;2023-04-15T05:31:44;12.55;;;4.80;;
74074;SDS011;62428;51.412;5.432;2023-04-15T05:34:09;9.37;;;4.80;;
74074;SDS011;62428;51.412;5.432;2023-04-15T05:36:36;11.57;;;4.80;;
74074;SDS011;62428;51.412;5.432;2023-04-15T05:39:01;10.57;;;5.37;;
74074;SDS011;62428;51.412;5.432;2023-04-15T05:41:27;10.03;;;5.30;;
74074;SDS011;62428;51.412;5.432;2023-04-15T05:43:52;10.83;;;5.10;;
74074;SDS011;62428;51.412;5.432;2023-04-15T05:46:17;9.40;;;5.30;;
74074;SDS011;62428;51.412;5.432;2023-04-15T05:48:42;9.80;;;4.97;;
74074;SDS011;62428;51.412;5.432;2023-04-15T05:51:08;12.15;;;5.47;;
74074;SDS011;62428;51.412;5.432;2023-04-15T05:53:33;8.90;;;5.07;;
74074;SDS011;62428;51.412;5.432;2023-04-15T05:55:58;11.47;;;5.77;;
74074;SDS011;62428;51.412;5.432;2023-04-15T05:58:24;13.30;;;5.53;;
74074;SDS011;62428;51.412;5.432;2023-04-15T06:00:50;12.93;;;5.63;;
74074;SDS011;62428;51.412;5.432;2023-04-15T06:03:15;13.35;;;5.60;;
74074;SDS011;62428;51.412;5.432;2023-04-15T06:05:41;9.80;;;5.47;;
74074;SDS011;62428;51.412;5.432;2023-04-15T06:08:06;9.10;;;5.00;;
74074;SDS011;62428;51.412;5.432;2023-04-15T06:10:33;13.43;;;5.80;;
74074;SDS011;62428;51.412;5.432;2023-04-15T06:13:00;12.60;;;5.97;;
74074;SDS011;62428;51.412;5.432;2023-04-15T06:15:27;13.07;;;6.40;;
74074;SDS011;62428;51.412;5.432;2023-04-15T06:17:53;10.57;;;5.60;;
74074;SDS011;62428;51.412;5.432;2023-04-15T06:20:18;12.17;;;5.90;;
74074;SDS011;62428;51.412;5.432;2023-04-15T06:22:44;12.50;;;5.63;;
74074;SDS011;62428;51.412;5.432;2023-04-15T06:25:09;13.17;;;6.03;;
74074;SDS011;62428;51.412;5.432;2023-04-15T06:27:35;9.50;;;5.15;;
74074;SDS011;62428;51.412;5.432;2023-04-15T06:30:00;16.10;;;6.20;;
74074;SDS011;62428;51.412;5.432;2023-04-15T06:32:25;14.83;;;5.73;;
74074;SDS011;62428;51.412;5.432;2023-04-15T06:34:51;9.90;;;5.13;;
74074;SDS011;62428;51.412;5.432;2023-04-15T06:37:16;10.50;;;4.80;;
74074;SDS011;62428;51.412;5.432;2023-04-15T06:39:41;11.47;;;5.10;;
74074;SDS011;62428;51.412;5.432;2023-04-15T06:42:08;10.35;;;5.80;;
74074;SDS011;62428;51.412;5.432;2023-04-15T06:44:34;9.77;;;5.22;;
74074;SDS011;62428;51.412;5.432;2023-04-15T06:47:01;9.43;;;4.80;;
74074;SDS011;62428;51.412;5.432;2023-04-15T06:49:26;10.40;;;5.73;;
74074;SDS011;62428;51.412;5.432;2023-04-15T06:51:52;9.10;;;5.20;;
74074;SDS011;62428;51.412;5.432;2023-04-15T06:54:17;11.20;;;5.10;;
74074;SDS011;62428;51.412;5.432;2023-04-15T06:56:42;10.73;;;5.63;;
74074;SDS011;62428;51.412;5.432;2023-04-15T06:59:08;9.13;;;5.25;;
74074;SDS011;62428;51.412;5.432;2023-04-15T07:01:33;8.40;;;4.93;;
74074;SDS011;62428;51.412;5.432;2023-04-15T07:03:59;11.75;;;5.68;;
74074;SDS011;62428;51.412;5.432;2023-04-15T07:06:25;9.63;;;5.05;;
74074;SDS011;62428;51.412;5.432;2023-04-15T07:08:51;11.55;;;5.75;;
74074;SDS011;62428;51.412;5.432;2023-04-15T07:11:16;10.33;;;5.00;;
74074;SDS011;62428;51.412;5.432;2023-04-15T07:13:42;12.67;;;5.43;;
74074;SDS011;62428;51.412;5.432;2023-04-15T07:16:07;9.80;;;5.30;;
74074;SDS011;62428;51.412;5.432;2023-04-15T07:18:33;9.57;;;5.15;;
74074;SDS011;62428;51.412;5.432;2023-04-15T07:20:58;8.73;;;4.80;;
74074;SDS011;62428;51.412;5.432;2023-04-15T07:23:23;8.37;;;5.17;;
74074;SDS011;62428;51.412;5.432;2023-04-15T07:25:49;10.43;;;4.90;;
74074;SDS011;62428;51.412;5.432;2023-04-15T07:28:14;7.77;;;4.27;;
74074;SDS011;62428;51.412;5.432;2023-04-15T07:30:40;7.33;;;4.40;;
74074;SDS011;62428;51.412;5.432;2023-04-15T07:33:05;11.13;;;4.82;;
74074;SDS011;62428;51.412;5.432;2023-04-15T07:35:31;8.13;;;4.63;;
74074;SDS011;62428;51.412;5.432;2023-04-15T07:37:57;7.43;;;4.70;;
74074;SDS011;62428;51.412;5.432;2023-04-15T07:40:22;7.27;;;4.13;;
74074;SDS011;62428;51.412;5.432;2023-04-15T07:42:48;10.00;;;5.00;;
74074;SDS011;62428;51.412;5.432;2023-04-15T07:45:13;7.82;;;4.70;;
74074;SDS011;62428;51.412;5.432;2023-04-15T07:47:40;8.77;;;4.40;;
74074;SDS011;62428;51.412;5.432;2023-04-15T07:50:06;8.43;;;4.38;;
74074;SDS011;62428;51.412;5.432;2023-04-15T07:52:33;8.15;;;4.75;;
74074;SDS011;62428;51.412;5.432;2023-04-15T07:55:03;7.68;;;3.83;;
74074;SDS011;62428;51.412;5.432;2023-04-15T07:57:31;7.15;;;4.30;;
74074;SDS011;62428;51.412;5.432;2023-04-15T07:59:56;5.50;;;3.80;;
74074;SDS011;62428;51.412;5.432;2023-04-15T08:02:21;6.20;;;3.77;;
74074;SDS011;62428;51.412;5.432;2023-04-15T08:04:47;7.40;;;3.60;;
74074;SDS011;62428;51.412;5.432;2023-04-15T08:07:12;6.87;;;3.57;;
74074;SDS011;62428;51.412;5.432;2023-04-15T08:09:38;9.57;;;4.03;;
74074;SDS011;62428;51.412;5.432;2023-04-15T08:12:03;9.07;;;3.50;;
74074;SDS011;62428;51.412;5.432;2023-04-15T08:14:28;5.40;;;3.47;;
74074;SDS011;62428;51.412;5.432;2023-04-15T08:16:54;6.50;;;3.70;;
74074;SDS011;62428;51.412;5.432;2023-04-15T08:19:19;6.87;;;3.83;;
74074;SDS011;62428;51.412;5.432;2023-04-15T08:21:45;5.72;;;3.60;;
74074;SDS011;62428;51.412;5.432;2023-04-15T08:24:10;5.60;;;3.67;;
74074;SDS011;62428;51.412;5.432;2023-04-15T08:26:36;6.75;;;3.90;;
74074;SDS011;62428;51.412;5.432;2023-04-15T08:29:02;7.10;;;3.47;;
74074;SDS011;62428;51.412;5.432;2023-04-15T08:31:28;5.80;;;3.77;;
74074;SDS011;62428;51.412;5.432;2023-04-15T08:33:55;5.32;;;3.60;;
74074;SDS011;62428;51.412;5.432;2023-04-15T08:36:21;6.57;;;3.58;;
74074;SDS011;62428;51.412;5.432;2023-04-15T08:38:46;6.30;;;3.30;;
74074;SDS011;62428;51.412;5.432;2023-04-15T08:41:22;6.60;;;3.53;;
74074;SDS011;62428;51.412;5.432;2023-04-15T08:43:52;8.70;;;4.28;;
74074;SDS011;62428;51.412;5.432;2023-04-15T08:46:25;10.93;;;3.80;;
74074;SDS011;62428;51.412;5.432;2023-04-15T08:48:51;7.50;;;3.80;;
74074;SDS011;62428;51.412;5.432;2023-04-15T08:51:18;9.47;;;3.53;;
74074;SDS011;62428;51.412;5.432;2023-04-15T08:53:44;9.80;;;3.42;;
74074;SDS011;62428;51.412;5.432;2023-04-15T08:56:11;6.70;;;3.60;;
74074;SDS011;62428;51.412;5.432;2023-04-15T08:58:39;6.38;;;3.05;;
74074;SDS011;62428;51.412;5.432;2023-04-15T09:01:05;9.88;;;3.28;;
74074;SDS011;62428;51.412;5.432;2023-04-15T09:03:31;5.23;;;2.67;;
74074;SDS011;62428;51.412;5.432;2023-04-15T09:05:57;7.00;;;2.58;;
74074;SDS011;62428;51.412;5.432;2023-04-15T09:08:23;6.93;;;3.00;;
74074;SDS011;62428;51.412;5.432;2023-04-15T09:10:49;6.33;;;3.20;;
74074;SDS011;62428;51.412;5.432;2023-04-15T09:13:14;6.33;;;2.63;;
74074;SDS011;62428;51.412;5.432;2023-04-15T09:15:39;5.80;;;2.37;;
74074;SDS011;62428;51.412;5.432;2023-04-15T09:18:05;6.35;;;2.60;;
74074;SDS011;62428;51.412;5.432;2023-04-15T09:20:37;6.20;;;2.67;;
74074;SDS011;62428;51.412;5.432;2023-04-15T09:23:10;5.93;;;2.70;;
74074;SDS011;62428;51.412;5.432;2023-04-15T09:25:37;7.05;;;2.70;;
74074;SDS011;62428;51.412;5.432;2023-04-15T09:28:06;3.50;;;2.33;;
74074;SDS011;62428;51.412;5.432;2023-04-15T09:30:32;5.43;;;2.40;;
74074;SDS011;62428;51.412;5.432;2023-04-15T09:32:58;5.27;;;2.53;;
74074;SDS011;62428;51.412;5.432;2023-04-15T09:35:26;4.55;;;2.42;;
74074;SDS011;62428;51.412;5.432;2023-04-15T09:37:52;3.53;;;2.30;;
74074;SDS011;62428;51.412;5.432;2023-04-15T09:42:56;3.78;;;2.15;;
74074;SDS011;62428;51.412;5.432;2023-04-15T09:45:22;3.13;;;2.13;;
74074;SDS011;62428;51.412;5.432;2023-04-15T09:47:48;4.15;;;2.00;;
74074;SDS011;62428;51.412;5.432;2023-04-15T09:50:15;3.47;;;2.00;;
74074;SDS011;62428;51.412;5.432;2023-04-15T09:52:41;5.30;;;2.30;;
74074;SDS011;62428;51.412;5.432;2023-04-15T09:55:07;3.25;;;2.13;;
74074;SDS011;62428;51.412;5.432;2023-04-15T09:57:34;4.50;;;1.97;;
74074;SDS011;62428;51.412;5.432;2023-04-15T10:00:02;4.15;;;1.70;;
74074;SDS011;62428;51.412;5.432;2023-04-15T10:02:32;2.88;;;1.83;;
74074;SDS011;62428;51.412;5.432;2023-04-15T10:04:57;2.58;;;1.50;;
74074;SDS011;62428;51.412;5.432;2023-04-15T10:07:23;2.87;;;1.60;;
74074;SDS011;62428;51.412;5.432;2023-04-15T10:09:50;4.63;;;2.10;;
74074;SDS011;62428;51.412;5.432;2023-04-15T10:12:16;4.68;;;1.60;;
74074;SDS011;62428;51.412;5.432;2023-04-15T10:14:42;3.53;;;1.93;;
74074;SDS011;62428;51.412;5.432;2023-04-15T10:17:10;3.42;;;1.77;;
74074;SDS011;62428;51.412;5.432;2023-04-15T10:19:36;4.45;;;1.80;;
74074;SDS011;62428;51.412;5.432;2023-04-15T10:22:02;4.30;;;1.90;;
74074;SDS011;62428;51.412;5.432;2023-04-15T10:24:29;5.78;;;2.63;;
74074;SDS011;62428;51.412;5.432;2023-04-15T10:26:56;5.50;;;1.92;;
74074;SDS011;62428;51.412;5.432;2023-04-15T10:29:23;3.42;;;2.03;;
74074;SDS011;62428;51.412;5.432;2023-04-15T10:31:50;3.37;;;1.70;;
74074;SDS011;62428;51.412;5.432;2023-04-15T10:34:18;6.55;;;1.70;;
74074;SDS011;62428;51.412;5.432;2023-04-15T10:36:44;2.75;;;1.75;;
74074;SDS011;62428;51.412;5.432;2023-04-15T10:42:16;2.88;;;1.70;;
74074;SDS011;62428;51.412;5.432;2023-04-15T10:44:55;3.37;;;1.70;;
74074;SDS011;62428;51.412;5.432;2023-04-15T10:47:21;3.95;;;1.90;;
74074;SDS011;62428;51.412;5.432;2023-04-15T10:49:50;3.83;;;1.70;;
74074;SDS011;62428;51.412;5.432;2023-04-15T10:52:17;3.70;;;1.52;;
74074;SDS011;62428;51.412;5.432;2023-04-15T10:54:47;2.42;;;1.42;;
74074;SDS011;62428;51.412;5.432;2023-04-15T10:57:20;3.07;;;1.30;;
74074;SDS011;62428;51.412;5.432;2023-04-15T11:02:44;2.30;;;1.60;;
74074;SDS011;62428;51.412;5.432;2023-04-15T11:05:17;2.53;;;1.65;;
74074;SDS011;62428;51.412;5.432;2023-04-15T11:12:42;4.53;;;1.70;;
74074;SDS011;62428;51.412;5.432;2023-04-15T11:18:11;2.33;;;1.45;;
74074;SDS011;62428;51.412;5.432;2023-04-15T11:20:40;1.50;;;1.07;;
74074;SDS011;62428;51.412;5.432;2023-04-15T11:23:08;1.50;;;0.90;;
74074;SDS011;62428;51.412;5.432;2023-04-15T11:25:34;3.23;;;1.10;;
74074;SDS011;62428;51.412;5.432;2023-04-15T11:28:03;1.77;;;0.98;;
74074;SDS011;62428;51.412;5.432;2023-04-15T11:30:31;2.85;;;1.25;;
74074;SDS011;62428;51.412;5.432;2023-04-15T11:32:58;3.05;;;1.00;;
74074;SDS011;62428;51.412;5.432;2023-04-15T11:35:25;2.40;;;1.45;;
74074;SDS011;62428;51.412;5.432;2023-04-15T11:37:50;3.17;;;1.37;;
74074;SDS011;62428;51.412;5.432;2023-04-15T11:40:16;2.70;;;1.57;;
74074;SDS011;62428;51.412;5.432;2023-04-15T11:42:48;2.75;;;1.60;;
74074;SDS011;62428;51.412;5.432;2023-04-15T11:45:31;2.65;;;1.30;;
74074;SDS011;62428;51.412;5.432;2023-04-15T11:48:04;2.93;;;1.47;;
74074;SDS011;62428;51.412;5.432;2023-04-15T11:50:33;2.90;;;0.95;;
74074;SDS011;62428;51.412;5.432;2023-04-15T11:53:00;3.03;;;1.50;;
74074;SDS011;62428;51.412;5.432;2023-04-15T11:55:28;4.63;;;2.00;;
74074;SDS011;62428;51.412;5.432;2023-04-15T11:58:13;1.75;;;1.60;;
74074;SDS011;62428;51.412;5.432;2023-04-15T12:00:52;2.87;;;1.60;;
74074;SDS011;62428;51.412;5.432;2023-04-15T12:03:26;5.43;;;1.50;;
74074;SDS011;62428;51.412;5.432;2023-04-15T12:08:59;3.00;;;1.70;;
74074;SDS011;62428;51.412;5.432;2023-04-15T12:11:44;3.00;;;1.45;;
74074;SDS011;62428;51.412;5.432;2023-04-15T12:14:21;2.50;;;1.00;;
74074;SDS011;62428;51.412;5.432;2023-04-15T12:16:50;1.67;;;1.10;;
74074;SDS011;62428;51.412;5.432;2023-04-15T12:19:24;2.25;;;1.30;;
74074;SDS011;62428;51.412;5.432;2023-04-15T12:22:01;2.08;;;1.10;;
74074;SDS011;62428;51.412;5.432;2023-04-15T12:24:31;3.42;;;1.23;;
74074;SDS011;62428;51.412;5.432;2023-04-15T12:27:02;1.93;;;1.40;;
74074;SDS011;62428;51.412;5.432;2023-04-15T12:29:32;1.88;;;0.98;;
74074;SDS011;62428;51.412;5.432;2023-04-15T12:32:08;3.08;;;1.48;;
74074;SDS011;62428;51.412;5.432;2023-04-15T12:37:05;2.35;;;1.30;;
74074;SDS011;62428;51.412;5.432;2023-04-15T12:39:37;2.53;;;0.80;;
74074;SDS011;62428;51.412;5.432;2023-04-15T12:42:04;2.08;;;0.90;;
74074;SDS011;62428;51.412;5.432;2023-04-15T12:44:30;2.30;;;0.90;;
74074;SDS011;62428;51.412;5.432;2023-04-15T12:46:56;1.88;;;0.80;;
74074;SDS011;62428;51.412;5.432;2023-04-15T12:49:21;1.60;;;0.97;;
74074;SDS011;62428;51.412;5.432;2023-04-15T12:51:48;1.60;;;1.13;;
74074;SDS011;62428;51.412;5.432;2023-04-15T12:54:15;3.17;;;1.55;;
74074;SDS011;62428;51.412;5.432;2023-04-15T12:56:41;1.60;;;0.93;;
74074;SDS011;62428;51.412;5.432;2023-04-15T12:59:06;2.50;;;1.23;;
74074;SDS011;62428;51.412;5.432;2023-04-15T13:01:32;4.27;;;0.90;;
74074;SDS011;62428;51.412;5.432;2023-04-15T13:03:57;2.87;;;1.10;;
74074;SDS011;62428;51.412;5.432;2023-04-15T13:06:23;2.87;;;1.23;;
74074;SDS011;62428;51.412;5.432;2023-04-15T13:08:48;2.80;;;1.30;;
74074;SDS011;62428;51.412;5.432;2023-04-15T13:11:14;1.75;;;0.80;;
74074;SDS011;62428;51.412;5.432;2023-04-15T13:13:41;5.15;;;1.42;;
74074;SDS011;62428;51.412;5.432;2023-04-15T13:16:06;1.90;;;0.80;;
74074;SDS011;62428;51.412;5.432;2023-04-15T13:18:32;2.00;;;1.20;;
74074;SDS011;62428;51.412;5.432;2023-04-15T13:20:58;4.55;;;1.20;;
74074;SDS011;62428;51.412;5.432;2023-04-15T13:23:24;2.03;;;1.17;;
74074;SDS011;62428;51.412;5.432;2023-04-15T13:25:49;2.20;;;1.10;;
74074;SDS011;62428;51.412;5.432;2023-04-15T13:28:15;1.97;;;0.97;;
74074;SDS011;62428;51.412;5.432;2023-04-15T13:30:40;3.17;;;1.17;;
74074;SDS011;62428;51.412;5.432;2023-04-15T13:33:06;2.50;;;0.90;;
74074;SDS011;62428;51.412;5.432;2023-04-15T13:35:33;3.07;;;0.97;;
74074;SDS011;62428;51.412;5.432;2023-04-15T13:37:59;1.98;;;1.05;;
74074;SDS011;62428;51.412;5.432;2023-04-15T13:40:25;3.87;;;1.00;;
74074;SDS011;62428;51.412;5.432;2023-04-15T13:42:50;1.80;;;0.70;;
74074;SDS011;62428;51.412;5.432;2023-04-15T13:45:17;2.13;;;0.90;;
74074;SDS011;62428;51.412;5.432;2023-04-15T13:47:42;1.58;;;0.60;;
74074;SDS011;62428;51.412;5.432;2023-04-15T13:50:08;3.10;;;1.07;;
74074;SDS011;62428;51.412;5.432;2023-04-15T13:52:33;1.77;;;0.93;;
74074;SDS011;62428;51.412;5.432;2023-04-15T13:54:58;1.80;;;0.90;;
74074;SDS011;62428;51.412;5.432;2023-04-15T13:57:24;3.58;;;0.82;;
74074;SDS011;62428;51.412;5.432;2023-04-15T13:59:49;2.30;;;0.80;;
74074;SDS011;62428;51.412;5.432;2023-04-15T14:02:15;2.90;;;1.03;;
74074;SDS011;62428;51.412;5.432;2023-04-15T14:04:40;2.00;;;0.90;;
74074;SDS011;62428;51.412;5.432;2023-04-15T14:07:06;1.38;;;1.00;;
74074;SDS011;62428;51.412;5.432;2023-04-15T14:09:31;2.50;;;0.90;;
74074;SDS011;62428;51.412;5.432;2023-04-15T14:11:57;2.30;;;1.30;;
74074;SDS011;62428;51.412;5.432;2023-04-15T14:14:24;2.72;;;1.00;;
74074;SDS011;62428;51.412;5.432;2023-04-15T14:16:49;3.92;;;1.05;;
74074;SDS011;62428;51.412;5.432;2023-04-15T14:19:15;2.03;;;1.07;;
74074;SDS011;62428;51.412;5.432;2023-04-15T14:21:40;2.70;;;0.90;;
74074;SDS011;62428;51.412;5.432;2023-04-15T14:24:05;2.03;;;0.90;;
74074;SDS011;62428;51.412;5.432;2023-04-15T14:26:31;1.90;;;0.80;;
74074;SDS011;62428;51.412;5.432;2023-04-15T14:28:56;3.00;;;0.93;;
74074;SDS011;62428;51.412;5.432;2023-04-15T14:31:22;2.13;;;0.90;;
74074;SDS011;62428;51.412;5.432;2023-04-15T14:33:47;1.80;;;1.00;;
74074;SDS011;62428;51.412;5.432;2023-04-15T14:36:12;3.13;;;0.90;;
74074;SDS011;62428;51.412;5.432;2023-04-15T14:38:38;2.50;;;0.80;;
74074;SDS011;62428;51.412;5.432;2023-04-15T14:41:07;2.75;;;1.23;;
74074;SDS011;62428;51.412;5.432;2023-04-15T14:43:33;2.78;;;0.63;;
74074;SDS011;62428;51.412;5.432;2023-04-15T14:45:59;2.80;;;0.80;;
74074;SDS011;62428;51.412;5.432;2023-04-15T14:48:25;2.00;;;0.70;;
74074;SDS011;62428;51.412;5.432;2023-04-15T14:50:51;2.13;;;0.80;;
74074;SDS011;62428;51.412;5.432;2023-04-15T14:53:17;1.60;;;0.70;;
74074;SDS011;62428;51.412;5.432;2023-04-15T14:55:42;1.73;;;0.60;;
74074;SDS011;62428;51.412;5.432;2023-04-15T14:58:08;1.85;;;0.70;;
74074;SDS011;62428;51.412;5.432;2023-04-15T15:00:33;2.10;;;0.70;;